Time;durP1;ratioP1;P1;durP2;ratioP2;P2;SDS_P1;SDS_P2;PMS_P1;PMS_P2;Temp;Humidity;BMP_temperature;BMP_pressure;BME280_temperature;BME280_humidity;BME280_pressure;Samples;Min_cycle;Max_cycle;Signal;HPM_P1;HPM_P2
2022/05/31 00:00:23;;;;;;;2.17;1.95;;;18.00;62.90;;;;;;5049871;28;20269;-59
2022/05/31 00:02:55;;;;;;;1.55;1.17;;;18.10;62.60;;;;;;5050257;28;20292;-55
2022/05/31 00:05:26;;;;;;;1.70;1.15;;;18.10;62.40;;;;;;5049992;28;20273;-55
2022/05/31 00:07:56;;;;;;;1.55;1.08;;;18.10;62.10;;;;;;5050420;28;20192;-54
2022/05/31 00:10:29;;;;;;;1.33;0.90;;;18.20;61.90;;;;;;5050206;28;20254;-57
2022/05/31 00:13:01;;;;;;;1.00;0.80;;;18.20;61.70;;;;;;5050692;28;20253;-55
2022/05/31 00:15:32;;;;;;;1.10;1.00;;;18.20;61.50;;;;;;5051202;28;20215;-55
2022/05/31 00:18:03;;;;;;;1.27;1.02;;;18.30;61.40;;;;;;5050973;28;20736;-55
2022/05/31 00:20:33;;;;;;;1.60;1.10;;;18.30;61.20;;;;;;5050049;28;20725;-56
2022/05/31 00:23:04;;;;;;;1.77;1.30;;;18.40;61.10;;;;;;5051536;28;20350;-54
2022/05/31 00:25:36;;;;;;;1.90;1.58;;;18.40;61.10;;;;;;5051754;28;20219;-55
2022/05/31 00:28:07;;;;;;;1.35;1.10;;;18.40;61.00;;;;;;5050292;28;20265;-55
2022/05/31 00:30:39;;;;;;;1.42;0.95;;;18.40;60.90;;;;;;5050285;28;20204;-55
2022/05/31 00:33:10;;;;;;;0.90;0.80;;;18.50;60.60;;;;;;5051225;28;20195;-53
2022/05/31 00:35:43;;;;;;;1.80;1.00;;;18.50;60.30;;;;;;5048003;28;20219;-54
2022/05/31 00:38:14;;;;;;;1.58;1.30;;;18.60;60.10;;;;;;5049984;28;20192;-57
2022/05/31 00:40:46;;;;;;;2.75;1.10;;;18.60;60.10;;;;;;5047321;28;20223;-54
2022/05/31 00:43:22;;;;;;;1.45;1.35;;;18.60;60.10;;;;;;5049382;28;20195;-56
2022/05/31 00:45:58;;;;;;;1.73;1.05;;;18.70;60.20;;;;;;5048551;28;20221;-59
2022/05/31 00:48:31;;;;;;;1.52;1.10;;;18.70;60.00;;;;;;5050328;28;20199;-56
2022/05/31 00:51:04;;;;;;;1.25;1.15;;;18.70;59.90;;;;;;5050568;28;20242;-54
2022/05/31 00:53:37;;;;;;;1.40;1.30;;;18.80;59.80;;;;;;5051020;28;20215;-55
2022/05/31 00:56:15;;;;;;;1.80;1.30;;;18.80;59.60;;;;;;5050372;28;20215;-52
2022/05/31 00:58:49;;;;;;;2.22;1.60;;;18.80;59.40;;;;;;5050087;28;20300;-54
2022/05/31 01:01:21;;;;;;;1.63;1.40;;;18.90;59.30;;;;;;5049353;28;20276;-57
2022/05/31 01:03:52;;;;;;;1.65;1.42;;;18.90;59.20;;;;;;5048556;28;20241;-55
2022/05/31 01:06:22;;;;;;;1.33;1.20;;;18.90;59.60;;;;;;5049655;28;20215;-54
2022/05/31 01:08:56;;;;;;;1.50;1.05;;;19.00;59.20;;;;;;5047206;28;20298;-55
2022/05/31 01:11:30;;;;;;;1.33;1.17;;;19.00;59.00;;;;;;5048335;28;20191;-54
2022/05/31 01:14:01;;;;;;;1.15;1.00;;;19.00;58.80;;;;;;5049786;28;20199;-58
2022/05/31 01:16:32;;;;;;;1.65;0.75;;;19.00;58.70;;;;;;5048963;28;20223;-55
2022/05/31 01:19:03;;;;;;;1.08;0.80;;;19.10;58.80;;;;;;5049626;28;20273;-52
2022/05/31 01:21:35;;;;;;;0.82;0.50;;;19.10;58.70;;;;;;5049654;28;20227;-54
2022/05/31 01:24:17;;;;;;;0.50;0.50;;;19.20;58.70;;;;;;5048826;28;20227;-54
2022/05/31 01:26:53;;;;;;;0.80;0.70;;;19.20;58.50;;;;;;5049029;28;20254;-55
2022/05/31 01:29:27;;;;;;;0.70;0.60;;;19.20;58.50;;;;;;5049351;28;20257;-53
2022/05/31 01:32:01;;;;;;;1.08;0.63;;;19.30;58.30;;;;;;5049306;28;20736;-53
2022/05/31 01:34:37;;;;;;;0.80;0.50;;;19.30;57.90;;;;;;5050650;28;20249;-53
2022/05/31 01:37:09;;;;;;;2.38;0.70;;;19.30;57.40;;;;;;5049452;28;20268;-52
2022/05/31 01:39:45;;;;;;;3.55;0.60;;;19.40;57.10;;;;;;5048771;28;20230;-55
2022/05/31 01:42:20;;;;;;;2.97;0.65;;;19.40;56.60;;;;;;5049851;28;20191;-55
2022/05/31 01:44:55;;;;;;;1.27;0.60;;;19.50;56.20;;;;;;5049223;28;20199;-53
2022/05/31 01:47:25;;;;;;;3.35;0.75;;;19.50;55.80;;;;;;5049029;28;20927;-54
2022/05/31 01:49:57;;;;;;;3.13;0.85;;;19.50;55.30;;;;;;5048779;28;20199;-50
2022/05/31 01:52:30;;;;;;;2.55;0.80;;;19.50;55.00;;;;;;5049175;28;20253;-55
2022/05/31 01:55:01;;;;;;;2.10;0.90;;;19.60;54.50;;;;;;5046902;28;20671;-56
2022/05/31 01:57:35;;;;;;;2.67;1.00;;;19.60;54.00;;;;;;5046878;28;20230;-54
2022/05/31 02:00:09;;;;;;;2.63;0.80;;;19.60;53.50;;;;;;5048843;28;20219;-54
2022/05/31 02:02:40;;;;;;;1.40;0.80;;;19.70;53.20;;;;;;5044733;28;20196;-56
2022/05/31 02:05:11;;;;;;;1.30;0.60;;;19.70;52.80;;;;;;5047897;28;20192;-54
2022/05/31 02:07:43;;;;;;;3.10;0.90;;;19.70;52.70;;;;;;5048211;28;20204;-54
2022/05/31 02:10:14;;;;;;;1.27;0.68;;;19.80;52.70;;;;;;5048309;28;20195;-56
2022/05/31 02:12:44;;;;;;;1.30;0.60;;;19.80;52.80;;;;;;5048033;28;20606;-55
2022/05/31 02:15:15;;;;;;;1.80;0.70;;;19.80;52.80;;;;;;5048585;28;20229;-54
2022/05/31 02:17:45;;;;;;;1.98;0.80;;;19.80;52.80;;;;;;5048861;28;20191;-54
2022/05/31 02:20:16;;;;;;;2.63;0.70;;;19.90;52.90;;;;;;5048282;28;20215;-54
2022/05/31 02:22:48;;;;;;;2.33;0.75;;;19.90;52.90;;;;;;5049101;28;20597;-53
2022/05/31 02:25:19;;;;;;;2.85;1.00;;;20.00;53.00;;;;;;5048526;28;20257;-53
2022/05/31 02:27:50;;;;;;;1.83;0.90;;;20.00;53.30;;;;;;5047987;28;20188;-54
2022/05/31 02:30:21;;;;;;;1.80;0.60;;;20.00;52.90;;;;;;5048492;28;20219;-54
2022/05/31 02:32:51;;;;;;;3.22;1.10;;;20.10;52.80;;;;;;5045740;28;20241;-57
2022/05/31 02:35:22;;;;;;;2.75;0.82;;;20.10;52.80;;;;;;5048227;28;20214;-53
2022/05/31 02:37:55;;;;;;;2.40;0.70;;;20.10;52.70;;;;;;5047267;28;20219;-53
2022/05/31 02:40:27;;;;;;;2.10;0.82;;;20.10;52.50;;;;;;5047645;28;20216;-59
2022/05/31 02:42:57;;;;;;;1.33;0.70;;;20.20;52.60;;;;;;5046970;28;20276;-52
2022/05/31 02:45:28;;;;;;;2.60;0.73;;;20.20;52.60;;;;;;5045349;28;20262;-54
2022/05/31 02:47:58;;;;;;;2.13;0.85;;;20.30;52.70;;;;;;5048480;28;20231;-53
2022/05/31 02:50:29;;;;;;;2.40;0.98;;;20.30;52.60;;;;;;5048323;28;20204;-54
2022/05/31 02:53:01;;;;;;;1.85;0.80;;;20.30;52.50;;;;;;5048197;28;20257;-54
2022/05/31 02:55:32;;;;;;;2.17;0.65;;;20.30;52.50;;;;;;5048408;28;20211;-56
2022/05/31 02:58:02;;;;;;;3.42;0.93;;;20.40;52.40;;;;;;5047244;28;20195;-54
2022/05/31 03:00:36;;;;;;;2.53;0.70;;;20.40;52.40;;;;;;5047856;28;20757;-55
2022/05/31 03:03:07;;;;;;;2.13;0.70;;;20.40;52.30;;;;;;5047804;28;20242;-51
2022/05/31 03:05:38;;;;;;;2.97;0.80;;;20.40;52.10;;;;;;5048008;28;20268;-55
2022/05/31 03:08:11;;;;;;;1.77;0.75;;;20.40;52.00;;;;;;5047508;28;20257;-54
2022/05/31 03:10:45;;;;;;;3.00;0.80;;;20.50;51.90;;;;;;5051438;28;20191;-56
2022/05/31 03:13:19;;;;;;;2.67;0.93;;;20.50;51.80;;;;;;5052043;28;20191;-53
2022/05/31 03:15:50;;;;;;;2.25;0.73;;;20.50;51.90;;;;;;5051265;28;20211;-53
2022/05/31 03:18:24;;;;;;;2.53;0.75;;;20.60;52.00;;;;;;5052567;28;20667;-53
2022/05/31 03:20:59;;;;;;;2.78;0.90;;;20.60;52.00;;;;;;5051480;28;20219;-53
2022/05/31 03:23:34;;;;;;;1.98;0.70;;;20.60;52.00;;;;;;5051478;28;20200;-55
2022/05/31 03:26:08;;;;;;;2.17;0.70;;;20.70;52.10;;;;;;5052118;28;20214;-53
2022/05/31 03:28:39;;;;;;;2.72;0.70;;;20.70;52.10;;;;;;5052273;28;20227;-53
2022/05/31 03:31:11;;;;;;;2.80;0.90;;;20.70;52.20;;;;;;5051723;28;20667;-53
2022/05/31 03:33:41;;;;;;;1.55;0.63;;;20.70;52.20;;;;;;5052337;28;20771;-52
2022/05/31 03:36:14;;;;;;;1.58;0.60;;;20.70;52.30;;;;;;5051841;28;20699;-53
2022/05/31 03:38:46;;;;;;;2.97;0.63;;;20.80;52.40;;;;;;5051022;28;20199;-54
2022/05/31 03:41:17;;;;;;;1.63;0.75;;;20.80;52.40;;;;;;5051108;28;20215;-55
2022/05/31 03:43:47;;;;;;;2.08;0.65;;;20.80;52.50;;;;;;5048874;28;20195;-57
2022/05/31 03:46:18;;;;;;;2.83;0.85;;;20.80;52.60;;;;;;5051744;28;20309;-56
2022/05/31 03:48:49;;;;;;;1.58;0.70;;;20.80;52.60;;;;;;5050857;28;20234;-54
2022/05/31 03:51:19;;;;;;;2.53;0.90;;;20.80;52.70;;;;;;5051534;28;20280;-55
2022/05/31 03:53:52;;;;;;;1.40;0.47;;;20.90;52.80;;;;;;5051644;28;20260;-54
2022/05/31 03:56:22;;;;;;;0.77;0.60;;;20.90;52.80;;;;;;5051218;28;20277;-53
2022/05/31 03:58:53;;;;;;;1.33;0.60;;;21.00;52.90;;;;;;5051555;28;20619;-55
2022/05/31 04:01:23;;;;;;;3.30;1.10;;;21.00;53.50;;;;;;5048773;28;20254;-55
2022/05/31 04:03:54;;;;;;;2.20;0.70;;;21.00;52.80;;;;;;5051425;28;20210;-51
2022/05/31 04:06:25;;;;;;;3.13;0.70;;;21.00;52.80;;;;;;5051356;28;20220;-50
2022/05/31 04:08:57;;;;;;;0.60;0.40;;;21.10;52.80;;;;;;5051359;28;20188;-52
2022/05/31 04:11:28;;;;;;;1.17;0.75;;;21.10;52.80;;;;;;5051325;28;20249;-52
2022/05/31 04:13:58;;;;;;;1.20;0.75;;;21.10;52.80;;;;;;5051485;28;20277;-51
2022/05/31 04:16:29;;;;;;;2.00;0.80;;;21.10;52.90;;;;;;5050730;28;20211;-53
2022/05/31 04:18:59;;;;;;;2.78;0.90;;;21.10;53.00;;;;;;5050738;28;20219;-50
2022/05/31 04:21:30;;;;;;;4.18;1.08;;;21.20;53.10;;;;;;5050631;28;20989;-53
2022/05/31 04:24:08;;;;;;;2.88;0.70;;;21.20;53.10;;;;;;5050768;28;20615;-52
2022/05/31 04:26:42;;;;;;;1.27;0.70;;;21.20;53.10;;;;;;5050433;28;20223;-51
2022/05/31 04:29:13;;;;;;;1.63;0.60;;;21.20;53.00;;;;;;5049234;28;20707;-53
2022/05/31 04:31:43;;;;;;;1.17;0.75;;;21.20;53.30;;;;;;5050459;28;20651;-49
2022/05/31 04:34:14;;;;;;;2.72;0.88;;;21.20;53.30;;;;;;5051663;28;20192;-49
2022/05/31 04:36:44;;;;;;;1.85;0.60;;;21.20;53.50;;;;;;5050647;28;20219;-51
2022/05/31 04:39:17;;;;;;;1.90;0.80;;;21.20;53.60;;;;;;5049461;28;20200;-52
2022/05/31 04:41:47;;;;;;;1.23;0.80;;;21.20;53.50;;;;;;5051014;28;20227;-57
2022/05/31 04:44:19;;;;;;;2.53;1.00;;;21.20;53.60;;;;;;5050164;28;20851;-55
2022/05/31 04:46:50;;;;;;;1.77;0.73;;;21.10;53.50;;;;;;5049928;28;20219;-57
2022/05/31 04:49:23;;;;;;;1.30;0.82;;;21.10;53.50;;;;;;5050725;28;20659;-52
2022/05/31 04:51:53;;;;;;;1.73;1.10;;;21.10;53.50;;;;;;5050930;28;20586;-50
2022/05/31 04:54:28;;;;;;;1.42;1.00;;;21.10;53.50;;;;;;5048553;28;20274;-51
2022/05/31 04:57:02;;;;;;;2.80;1.10;;;21.10;53.50;;;;;;5050466;28;20223;-51
2022/05/31 04:59:32;;;;;;;1.70;1.30;;;21.10;53.60;;;;;;5050257;28;20261;-50
2022/05/31 05:02:03;;;;;;;2.63;1.10;;;21.10;53.50;;;;;;5049836;28;20204;-49
2022/05/31 05:04:33;;;;;;;3.08;1.40;;;21.10;53.90;;;;;;5015132;28;20293;-50
2022/05/31 05:07:04;;;;;;;1.98;1.08;;;21.10;54.20;;;;;;5013510;28;20561;-51
2022/05/31 05:09:37;;;;;;;2.25;1.15;;;21.10;54.20;;;;;;5036616;28;20637;-54
2022/05/31 05:12:08;;;;;;;1.75;1.20;;;21.10;54.20;;;;;;5050036;28;20265;-54
2022/05/31 05:14:39;;;;;;;3.70;1.83;;;21.10;54.40;;;;;;5048941;28;20234;-54
2022/05/31 05:17:09;;;;;;;2.50;1.65;;;21.10;54.10;;;;;;5049384;28;20219;-56
2022/05/31 05:19:40;;;;;;;2.45;1.80;;;21.10;53.80;;;;;;5049397;28;20227;-55
2022/05/31 05:22:10;;;;;;;3.85;2.00;;;21.00;53.50;;;;;;5048939;28;20196;-55
2022/05/31 05:24:43;;;;;;;2.15;1.80;;;21.00;53.60;;;;;;5050117;28;20199;-51
2022/05/31 05:27:14;;;;;;;3.08;2.03;;;21.00;53.50;;;;;;5048529;28;20227;-53
2022/05/31 05:32:31;;;;;;;3.58;2.38;;;20.90;53.40;;;;;;5049362;28;20206;-53
2022/05/31 05:35:01;;;;;;;5.03;2.55;;;20.90;53.40;;;;;;5049627;28;20531;-52
2022/05/31 05:37:32;;;;;;;4.05;2.28;;;20.90;53.20;;;;;;5049392;28;20207;-56
2022/05/31 05:40:05;;;;;;;2.70;2.17;;;20.90;53.00;;;;;;5048316;28;20207;-51
2022/05/31 05:42:35;;;;;;;2.65;2.20;;;20.90;52.90;;;;;;5049436;28;20270;-50
2022/05/31 05:45:07;;;;;;;4.32;2.20;;;20.90;52.80;;;;;;5049085;28;20223;-50
2022/05/31 05:47:37;;;;;;;3.35;2.00;;;20.90;52.80;;;;;;5048660;28;20204;-51
2022/05/31 05:50:09;;;;;;;3.70;2.40;;;20.80;52.70;;;;;;5049129;28;20261;-49
2022/05/31 05:52:41;;;;;;;3.50;2.03;;;20.80;52.70;;;;;;5048564;28;20309;-53
2022/05/31 05:55:14;;;;;;;3.47;2.38;;;20.80;52.90;;;;;;5048216;28;20249;-51
2022/05/31 05:57:44;;;;;;;4.13;2.17;;;20.80;53.10;;;;;;5048697;28;20674;-52
2022/05/31 06:00:16;;;;;;;3.15;2.30;;;20.80;53.10;;;;;;5048241;28;20655;-53
2022/05/31 06:02:49;;;;;;;4.82;2.40;;;20.80;53.10;;;;;;5046226;28;20218;-54
2022/05/31 06:05:23;;;;;;;3.60;2.38;;;20.80;53.20;;;;;;5047675;28;20195;-54
2022/05/31 06:07:58;;;;;;;2.05;1.85;;;20.80;53.30;;;;;;5048070;28;20200;-53
2022/05/31 06:10:34;;;;;;;2.63;1.95;;;20.70;53.20;;;;;;5048153;28;20194;-52
2022/05/31 06:13:08;;;;;;;2.92;2.15;;;20.70;53.30;;;;;;5048430;28;20261;-50
2022/05/31 06:15:44;;;;;;;4.10;2.10;;;20.70;53.30;;;;;;5048847;28;20216;-53
2022/05/31 06:18:17;;;;;;;3.08;2.22;;;20.70;53.40;;;;;;5048467;28;20199;-51
2022/05/31 06:20:52;;;;;;;4.78;2.20;;;20.70;53.40;;;;;;5049122;28;20859;-53
2022/05/31 06:23:22;;;;;;;2.38;1.88;;;20.60;53.30;;;;;;5048520;28;20195;-52
2022/05/31 06:25:55;;;;;;;2.25;1.90;;;20.60;53.30;;;;;;5045536;28;20208;-50
2022/05/31 06:28:25;;;;;;;2.22;2.00;;;20.60;53.30;;;;;;5046437;28;20196;-50
2022/05/31 06:30:56;;;;;;;2.70;1.83;;;20.60;53.20;;;;;;5046500;28;20191;-51
2022/05/31 06:33:26;;;;;;;3.10;2.00;;;20.60;53.20;;;;;;5048225;28;20203;-54
2022/05/31 06:35:58;;;;;;;3.60;2.00;;;20.50;53.20;;;;;;5046973;28;20257;-52
2022/05/31 06:38:29;;;;;;;2.38;2.05;;;20.50;53.30;;;;;;5047121;28;20191;-56
2022/05/31 06:41:01;;;;;;;2.55;1.90;;;20.50;53.30;;;;;;5046066;28;20222;-54
2022/05/31 06:43:32;;;;;;;7.30;2.83;;;20.50;53.30;;;;;;5047523;28;20259;-53
2022/05/31 06:46:06;;;;;;;8.40;2.53;;;20.50;53.60;;;;;;5047330;28;20261;-57
2022/05/31 06:48:37;;;;;;;5.60;2.67;;;20.50;53.90;;;;;;5046454;28;20230;-58
2022/05/31 06:51:09;;;;;;;10.93;3.15;;;20.40;54.00;;;;;;5046083;28;20196;-55
2022/05/31 06:59:16;;;;;;;9.07;2.80;;;20.40;54.10;;;;;;5046387;28;20325;-57
2022/05/31 07:01:48;;;;;;;8.95;2.72;;;20.40;54.20;;;;;;5046443;28;20771;-57
2022/05/31 07:04:19;;;;;;;5.38;2.50;;;20.40;54.30;;;;;;5045804;28;20287;-57
2022/05/31 07:06:49;;;;;;;6.05;2.88;;;20.40;54.40;;;;;;5047513;28;20207;-57
2022/05/31 07:09:20;;;;;;;7.03;2.35;;;20.30;54.30;;;;;;5046280;28;20196;-57
2022/05/31 07:11:52;;;;;;;8.43;2.60;;;20.30;54.40;;;;;;5047283;28;20648;-57
2022/05/31 07:14:23;;;;;;;7.38;3.05;;;20.30;54.40;;;;;;5043352;28;20195;-57
2022/05/31 07:16:53;;;;;;;5.05;2.63;;;20.20;54.50;;;;;;5043082;28;20223;-57
2022/05/31 07:19:24;;;;;;;3.80;2.42;;;20.20;54.50;;;;;;5045768;28;20191;-58
2022/05/31 07:21:54;;;;;;;7.85;2.53;;;20.20;54.60;;;;;;5045483;28;20328;-57
2022/05/31 07:24:25;;;;;;;5.28;2.30;;;20.10;54.60;;;;;;5045689;28;20247;-57
2022/05/31 07:26:57;;;;;;;5.00;2.72;;;20.10;54.60;;;;;;5046285;28;20224;-58
2022/05/31 07:29:28;;;;;;;6.60;2.83;;;20.10;54.70;;;;;;5046191;28;20199;-57
2022/05/31 07:31:58;;;;;;;3.35;2.30;;;20.10;54.60;;;;;;5046961;28;20227;-57
2022/05/31 07:34:29;;;;;;;4.07;2.50;;;20.10;54.70;;;;;;5046444;28;20192;-57
2022/05/31 07:36:59;;;;;;;7.05;2.28;;;20.10;54.70;;;;;;5046479;28;20265;-57
2022/05/31 07:39:30;;;;;;;5.13;2.28;;;20.10;54.70;;;;;;5046267;28;20200;-57
2022/05/31 07:42:02;;;;;;;3.13;2.13;;;20.00;54.70;;;;;;5046271;28;20219;-56
2022/05/31 07:44:33;;;;;;;3.92;2.53;;;20.00;54.70;;;;;;5045869;28;20255;-57
2022/05/31 07:47:04;;;;;;;5.13;2.40;;;20.00;55.40;;;;;;5011474;28;20263;-57
2022/05/31 07:49:35;;;;;;;5.25;2.45;;;20.00;54.80;;;;;;5011347;28;20197;-57
2022/05/31 07:52:10;;;;;;;4.93;1.90;;;20.00;54.80;;;;;;5011521;28;20251;-59
2022/05/31 07:54:41;;;;;;;5.78;2.42;;;19.90;54.80;;;;;;5011508;28;20197;-56
2022/05/31 07:59:57;;;;;;;5.03;2.60;;;19.90;54.90;;;;;;5013540;28;20193;-57
2022/05/31 08:02:28;;;;;;;3.50;2.28;;;19.90;54.90;;;;;;5029613;28;20232;-57
2022/05/31 08:04:58;;;;;;;5.20;2.60;;;19.80;54.90;;;;;;5034323;28;20208;-56
2022/05/31 08:07:29;;;;;;;4.90;2.83;;;19.80;55.00;;;;;;5029460;28;20271;-56
2022/05/31 08:09:59;;;;;;;5.15;2.85;;;19.80;55.00;;;;;;5014586;28;20201;-58
2022/05/31 08:12:32;;;;;;;5.55;3.30;;;19.80;55.10;;;;;;5014100;28;20252;-57
2022/05/31 08:15:04;;;;;;;6.75;3.47;;;19.80;55.10;;;;;;5013721;28;20279;-58
2022/05/31 08:17:34;;;;;;;6.60;3.50;;;19.70;55.10;;;;;;5029258;28;20216;-57
2022/05/31 08:20:06;;;;;;;5.30;3.30;;;19.70;55.70;;;;;;5034083;28;20250;-57
2022/05/31 08:22:37;;;;;;;6.20;3.13;;;19.70;55.10;;;;;;5033831;28;20315;-57
2022/05/31 08:25:08;;;;;;;6.15;3.33;;;19.70;55.10;;;;;;5033774;28;20196;-57
2022/05/31 08:27:41;;;;;;;7.32;3.60;;;19.70;55.10;;;;;;5033771;28;20200;-56
2022/05/31 08:30:12;;;;;;;6.78;3.38;;;19.60;55.10;;;;;;5033681;28;20196;-58
2022/05/31 08:32:42;;;;;;;6.35;3.20;;;19.60;55.20;;;;;;5033246;28;20204;-57
2022/05/31 08:35:13;;;;;;;6.07;3.60;;;19.60;55.10;;;;;;5033280;28;20196;-57
2022/05/31 08:37:43;;;;;;;6.43;3.45;;;19.60;55.20;;;;;;5032172;28;20192;-57
2022/05/31 08:40:15;;;;;;;4.03;2.53;;;19.60;55.20;;;;;;5033668;28;20227;-57
2022/05/31 08:42:54;;;;;;;5.43;3.10;;;19.50;55.30;;;;;;5029984;28;20227;-57
2022/05/31 08:45:37;;;;;;;4.35;3.00;;;19.50;55.40;;;;;;5046774;28;20191;-57
2022/05/31 08:48:18;;;;;;;6.18;3.65;;;19.50;55.40;;;;;;5050573;28;20204;-58
2022/05/31 08:56:54;;;;;;;6.25;3.33;;;19.50;55.40;;;;;;5050058;28;20614;-58
2022/05/31 08:56:59;;;;;;;5.97;3.13;;;19.50;55.40;;;;;;5049878;28;20306;-58
2022/05/31 08:59:37;;;;;;;4.90;2.97;;;19.50;55.40;;;;;;5049568;28;20203;-57
2022/05/31 09:02:12;;;;;;;5.05;2.72;;;19.40;55.40;;;;;;5049400;28;20293;-57
2022/05/31 09:04:46;;;;;;;5.32;3.40;;;19.50;55.50;;;;;;5049504;28;20705;-58
2022/05/31 09:07:22;;;;;;;6.13;3.03;;;19.40;55.50;;;;;;5048979;28;20296;-57
2022/05/31 09:09:56;;;;;;;4.20;2.78;;;19.40;55.50;;;;;;5049363;28;20675;-58
2022/05/31 09:12:37;;;;;;;5.28;3.28;;;19.40;55.50;;;;;;5049480;28;20187;-58
2022/05/31 09:15:20;;;;;;;6.28;3.25;;;19.30;55.60;;;;;;5050071;28;20225;-57
2022/05/31 09:18:04;;;;;;;5.65;3.17;;;19.30;55.50;;;;;;5049297;28;20227;-57
2022/05/31 09:20:41;;;;;;;6.05;2.95;;;19.30;55.50;;;;;;5049768;28;20269;-59
2022/05/31 09:23:14;;;;;;;4.90;2.75;;;19.30;55.60;;;;;;5049382;28;20195;-57
2022/05/31 09:25:48;;;;;;;4.55;3.10;;;19.30;55.60;;;;;;5049650;28;20277;-58
2022/05/31 09:28:27;;;;;;;5.78;3.25;;;19.30;55.60;;;;;;5048759;28;20199;-57
2022/05/31 09:31:01;;;;;;;5.47;2.85;;;19.20;55.60;;;;;;5048832;28;20191;-57
2022/05/31 09:33:38;;;;;;;6.53;3.05;;;19.20;55.60;;;;;;5046572;28;20540;-58
2022/05/31 09:36:22;;;;;;;5.68;3.17;;;19.20;55.60;;;;;;5048879;28;20269;-57
2022/05/31 09:39:15;;;;;;;7.28;3.10;;;19.20;55.60;;;;;;5047465;28;20195;-57
2022/05/31 09:41:51;;;;;;;4.53;2.95;;;19.20;55.60;;;;;;5045754;28;20223;-57
2022/05/31 09:44:28;;;;;;;5.57;2.75;;;19.10;55.60;;;;;;5047780;28;20555;-57
2022/05/31 09:47:10;;;;;;;4.53;2.65;;;19.10;55.60;;;;;;5046901;28;20699;-58
2022/05/31 09:49:44;;;;;;;4.13;2.78;;;19.10;55.60;;;;;;5047503;28;20199;-58
2022/05/31 09:52:18;;;;;;;3.30;2.50;;;19.10;55.70;;;;;;5047784;28;20241;-56
2022/05/31 09:58:01;;;;;;;3.97;2.60;;;19.00;55.80;;;;;;5046258;28;20202;-57
2022/05/31 10:00:32;;;;;;;5.03;2.50;;;19.00;55.70;;;;;;5046964;28;20205;-57
2022/05/31 10:03:14;;;;;;;3.63;2.30;;;19.00;55.70;;;;;;5048722;28;20223;-57
2022/05/31 10:05:48;;;;;;;5.18;2.60;;;19.00;55.70;;;;;;5049383;28;20276;-57
2022/05/31 10:08:32;;;;;;;3.55;2.28;;;19.00;55.70;;;;;;5048383;28;20195;-57
2022/05/31 10:11:08;;;;;;;4.13;2.60;;;18.90;55.70;;;;;;5046235;28;20261;-56
2022/05/31 10:13:40;;;;;;;5.25;2.33;;;18.90;55.70;;;;;;5048581;28;20187;-56
2022/05/31 10:16:20;;;;;;;4.63;2.67;;;19.00;55.80;;;;;;5048963;28;20251;-56
2022/05/31 10:18:58;;;;;;;3.78;2.83;;;18.90;55.80;;;;;;5048228;28;20192;-56
2022/05/31 10:21:36;;;;;;;3.67;2.53;;;18.90;55.80;;;;;;5048831;28;20296;-58
2022/05/31 10:24:16;;;;;;;5.03;2.80;;;18.90;55.80;;;;;;5048564;28;20195;-57
2022/05/31 10:26:49;;;;;;;4.18;2.78;;;18.90;55.80;;;;;;5049141;28;20702;-58
2022/05/31 10:29:26;;;;;;;4.10;2.65;;;18.90;55.80;;;;;;5046061;28;20233;-58
2022/05/31 10:31:58;;;;;;;3.08;2.10;;;18.90;55.90;;;;;;5047082;28;20191;-57
2022/05/31 10:34:42;;;;;;;4.32;2.40;;;18.80;55.90;;;;;;5048805;28;20227;-58
2022/05/31 10:37:28;;;;;;;3.45;2.40;;;18.80;55.90;;;;;;5048232;28;20234;-58
2022/05/31 10:40:08;;;;;;;3.28;2.35;;;18.80;55.90;;;;;;5037358;28;20203;-58
2022/05/31 10:42:43;;;;;;;3.53;2.50;;;18.80;55.90;;;;;;5031136;28;20255;-57
2022/05/31 10:45:23;;;;;;;3.28;2.38;;;18.80;55.90;;;;;;5030302;28;20192;-57
2022/05/31 10:47:54;;;;;;;4.05;2.47;;;18.80;55.90;;;;;;5029728;28;20203;-57
2022/05/31 10:50:33;;;;;;;3.92;2.20;;;18.80;55.90;;;;;;5029230;28;20196;-59
2022/05/31 10:53:17;;;;;;;6.30;2.80;;;18.80;56.00;;;;;;5029996;28;20200;-55
2022/05/31 10:55:54;;;;;;;4.53;2.33;;;18.70;56.00;;;;;;5029876;28;20223;-57
2022/05/31 10:58:52;;;;;;;3.15;2.13;;;18.70;55.90;;;;;;5030233;28;20212;-58
2022/05/31 11:01:44;;;;;;;4.20;2.53;;;18.70;56.00;;;;;;5030207;28;20679;-58
2022/05/31 11:04:30;;;;;;;3.13;2.03;;;18.70;56.00;;;;;;5030242;28;20192;-56
2022/05/31 11:07:14;;;;;;;4.50;2.25;;;18.70;56.00;;;;;;5029874;28;20216;-59
2022/05/31 11:12:58;;;;;;;3.60;2.05;;;18.60;56.00;;;;;;5029693;28;20195;-59
2022/05/31 11:15:38;;;;;;;4.10;2.65;;;18.70;56.00;;;;;;5029183;28;20206;-58
2022/05/31 11:18:31;;;;;;;3.80;2.03;;;18.70;56.10;;;;;;5029426;28;20196;-58
2022/05/31 11:21:09;;;;;;;3.35;2.42;;;18.60;56.10;;;;;;5029527;28;20200;-58
2022/05/31 11:23:54;;;;;;;3.53;2.22;;;18.60;56.10;;;;;;5029279;28;20231;-59
2022/05/31 11:26:48;;;;;;;3.83;2.17;;;18.60;56.00;;;;;;5028950;28;20216;-59
2022/05/31 11:29:40;;;;;;;3.58;2.00;;;18.60;56.10;;;;;;5023648;28;20412;-59
2022/05/31 11:32:20;;;;;;;2.95;1.90;;;18.60;56.10;;;;;;5032959;28;20199;-58
2022/05/31 11:35:05;;;;;;;4.32;2.15;;;18.60;56.10;;;;;;5033268;28;20286;-58
2022/05/31 11:37:49;;;;;;;3.33;2.10;;;18.60;56.20;;;;;;5033847;28;20216;-59
2022/05/31 11:40:34;;;;;;;3.28;2.30;;;18.60;56.20;;;;;;5033147;28;20196;-58
2022/05/31 11:43:51;;;;;;;3.20;2.17;;;18.50;56.20;;;;;;5033450;28;20278;-59
2022/05/31 11:46:29;;;;;;;2.63;2.05;;;18.50;56.20;;;;;;5029003;28;20220;-57
2022/05/31 11:49:03;;;;;;;3.35;1.95;;;18.50;56.20;;;;;;5032757;28;20203;-56
2022/05/31 11:52:08;;;;;;;4.22;2.33;;;18.50;56.20;;;;;;5032767;28;20200;-58
2022/05/31 11:55:29;;;;;;;2.78;2.10;;;18.50;56.20;;;;;;5033020;28;20200;-58
2022/05/31 11:58:15;;;;;;;3.15;2.00;;;18.50;56.20;;;;;;5021192;28;20208;-56
2022/05/31 12:00:54;;;;;;;2.92;1.95;;;18.40;56.20;;;;;;5033053;28;20196;-56
2022/05/31 12:03:31;;;;;;;3.42;2.15;;;18.40;56.20;;;;;;5032596;28;20314;-58
2022/05/31 12:06:08;;;;;;;3.15;1.77;;;18.40;56.20;;;;;;5032572;28;20220;-58
2022/05/31 12:08:44;;;;;;;3.00;2.25;;;18.40;56.20;;;;;;5032721;28;20196;-58
2022/05/31 12:11:19;;;;;;;2.90;1.70;;;18.40;56.30;;;;;;5032329;28;20845;-58
2022/05/31 12:13:52;;;;;;;2.20;1.95;;;18.40;56.30;;;;;;5032688;28;20204;-58
2022/05/31 12:16:24;;;;;;;2.10;1.65;;;18.40;56.30;;;;;;5019379;28;20209;-59
2022/05/31 12:19:04;;;;;;;3.28;1.85;;;18.40;56.30;;;;;;5012582;28;20364;-59
2022/05/31 12:21:41;;;;;;;2.55;1.90;;;18.40;56.40;;;;;;5012274;28;20310;-58
2022/05/31 12:24:17;;;;;;;3.25;2.08;;;18.40;56.40;;;;;;5012123;28;20201;-58
2022/05/31 12:26:55;;;;;;;2.50;1.90;;;18.40;56.40;;;;;;5031607;28;20306;-58
2022/05/31 12:29:33;;;;;;;2.45;1.70;;;18.30;56.30;;;;;;5032622;28;20246;-58
2022/05/31 12:32:29;;;;;;;2.67;1.98;;;18.40;56.40;;;;;;5032333;28;20196;-57
2022/05/31 12:35:00;;;;;;;2.40;1.85;;;18.30;56.40;;;;;;5032059;28;20231;-58
2022/05/31 12:37:55;;;;;;;2.20;1.73;;;18.30;56.30;;;;;;5032565;28;20216;-58
2022/05/31 12:40:38;;;;;;;2.10;1.60;;;18.30;56.40;;;;;;5031309;28;20196;-58
2022/05/31 12:43:12;;;;;;;3.30;2.03;;;18.30;56.40;;;;;;5031609;28;20228;-58
2022/05/31 12:45:47;;;;;;;3.10;1.67;;;18.30;56.40;;;;;;5032030;28;20220;-58
2022/05/31 12:48:27;;;;;;;2.17;1.90;;;18.30;56.40;;;;;;5032327;28;20576;-58
2022/05/31 12:51:24;;;;;;;3.33;2.00;;;18.30;56.40;;;;;;5032039;28;20219;-58
2022/05/31 12:54:16;;;;;;;2.38;1.77;;;18.30;56.40;;;;;;5032101;28;20199;-59
2022/05/31 12:57:00;;;;;;;3.13;1.90;;;18.30;56.50;;;;;;5031455;28;20309;-58
2022/05/31 12:59:55;;;;;;;1.80;1.63;;;18.30;56.50;;;;;;5012701;28;20197;-58
2022/05/31 13:02:37;;;;;;;2.58;1.60;;;18.30;56.50;;;;;;5011886;28;20256;-58
2022/05/31 13:05:33;;;;;;;2.47;1.70;;;18.30;56.50;;;;;;5011898;28;20653;-57
2022/05/31 13:08:24;;;;;;;2.78;2.05;;;18.20;56.50;;;;;;5002723;28;20207;-58
2022/05/31 13:19:38;;;;;;;3.85;1.80;;;18.20;56.50;;;;;;5031777;28;20199;-56
2022/05/31 13:22:11;;;;;;;2.22;1.60;;;18.20;56.60;;;;;;5031529;28;20631;-58
2022/05/31 13:24:49;;;;;;;2.50;1.55;;;18.10;56.50;;;;;;5031350;28;20199;-58
2022/05/31 13:27:24;;;;;;;2.05;1.58;;;18.10;56.50;;;;;;5031102;28;20215;-58
2022/05/31 13:30:07;;;;;;;2.63;1.60;;;18.10;56.60;;;;;;5031403;28;20227;-58
2022/05/31 13:32:39;;;;;;;1.85;1.65;;;18.10;56.60;;;;;;5031388;28;20207;-58
2022/05/31 13:35:13;;;;;;;2.70;2.00;;;18.10;56.60;;;;;;5030853;28;20204;-58
2022/05/31 13:37:59;;;;;;;2.30;1.70;;;18.10;56.60;;;;;;5031698;28;20196;-58
2022/05/31 13:40:36;;;;;;;1.70;1.52;;;18.10;56.60;;;;;;5031177;28;20196;-58
2022/05/31 13:43:15;;;;;;;2.50;1.95;;;18.10;56.60;;;;;;5030978;28;20333;-58
2022/05/31 13:45:46;;;;;;;2.53;1.70;;;18.20;57.30;;;;;;5030487;28;20247;-58
2022/05/31 13:48:22;;;;;;;2.38;1.67;;;18.10;56.70;;;;;;5030649;28;20200;-58
2022/05/31 13:50:59;;;;;;;1.77;1.40;;;18.10;56.70;;;;;;5030633;28;20643;-57
2022/05/31 13:53:36;;;;;;;2.17;1.58;;;18.10;56.80;;;;;;5030327;28;20195;-57
2022/05/31 13:56:06;;;;;;;2.65;1.60;;;18.10;56.80;;;;;;5030500;28;20211;-58